Time;durP1;ratioP1;P1;durP2;ratioP2;P2;SDS_P1;SDS_P2;PMS_P1;PMS_P2;Temp;Humidity;BMP_temperature;BMP_pressure;BME280_temperature;BME280_humidity;BME280_pressure;Samples;Min_cycle;Max_cycle;Signal;HPM_P1;HPM_P2
2023/08/03 00:00:54;;;;;;;0.40;0.40;;;25.10;63.10;;;25.72;47.15;93742.75;5077613;28;20194;-39
2023/08/03 00:03:21;;;;;;;0.38;0.38;;;25.10;63.20;;;25.71;47.39;93725.84;5077589;28;20237;-39
2023/08/03 00:05:48;;;;;;;0.50;0.50;;;25.10;63.20;;;25.70;47.55;93710.81;5077465;28;20215;-39
2023/08/03 00:08:16;;;;;;;0.30;0.30;;;25.10;63.20;;;25.69;47.48;93722.66;5077826;28;20199;-39
2023/08/03 00:10:43;;;;;;;0.30;0.30;;;25.10;63.30;;;25.69;47.57;93725.34;5076327;28;20645;-39
2023/08/03 00:13:10;;;;;;;0.40;0.40;;;25.10;63.30;;;25.69;47.57;93703.88;5077394;28;20354;-39
2023/08/03 00:15:37;;;;;;;0.30;0.30;;;25.10;63.40;;;25.69;47.18;93697.72;5077349;28;20193;-39
2023/08/03 00:18:04;;;;;;;0.40;0.40;;;25.10;63.40;;;25.68;47.40;93709.56;5077146;28;20225;-39
2023/08/03 00:20:31;;;;;;;0.40;0.40;;;25.10;63.40;;;25.68;47.64;93709.56;5077772;28;20492;-39
2023/08/03 00:23:00;;;;;;;0.52;0.52;;;25.10;63.40;;;25.68;47.40;93712.25;5077219;28;20198;-39
2023/08/03 00:25:30;;;;;;;0.40;0.40;;;25.10;63.50;;;25.68;47.69;93742.59;5077318;28;20656;-39
2023/08/03 00:27:57;;;;;;;0.30;0.30;;;25.10;63.50;;;25.67;47.59;93742.91;5077459;28;20185;-39
2023/08/03 00:30:24;;;;;;;0.30;0.30;;;25.10;63.50;;;25.68;47.88;93723.00;5076856;28;20208;-39
2023/08/03 00:32:51;;;;;;;0.30;0.30;;;25.00;63.60;;;25.66;47.44;93714.47;5076108;28;20290;-39
2023/08/03 00:35:18;;;;;;;0.40;0.40;;;25.00;63.60;;;25.66;47.74;93714.47;5077242;28;20591;-39
2023/08/03 00:37:45;;;;;;;0.43;0.43;;;25.00;63.60;;;25.64;47.53;93732.81;5076964;28;20199;-39
2023/08/03 00:40:14;;;;;;;0.50;0.50;;;25.00;63.70;;;25.64;47.83;93743.53;5076878;28;20191;-39
2023/08/03 00:42:41;;;;;;;0.30;0.30;;;25.00;63.70;;;25.62;48.07;93738.50;5076064;28;20265;-37
2023/08/03 00:45:11;;;;;;;0.40;0.40;;;25.00;63.60;;;25.62;47.79;93735.00;5075908;28;20299;-36
2023/08/03 00:47:41;;;;;;;0.40;0.40;;;25.00;63.70;;;25.61;47.94;93744.97;5076128;28;20235;-37
2023/08/03 00:50:09;;;;;;;0.30;0.30;;;25.00;64.70;;;25.60;47.95;93746.06;5076592;28;20191;-39
2023/08/03 00:52:37;;;;;;;0.40;0.40;;;25.00;63.80;;;25.59;47.81;93749.84;5076014;28;20252;-37
2023/08/03 00:55:05;;;;;;;0.35;0.35;;;25.00;63.80;;;25.59;48.18;93746.38;5075702;28;20248;-39
2023/08/03 00:57:32;;;;;;;0.32;0.32;;;25.00;63.80;;;25.56;47.96;93759.34;5076552;28;20224;-39
2023/08/03 00:59:59;;;;;;;0.32;0.32;;;25.00;63.90;;;25.56;47.76;93769.25;5076439;28;20196;-39
2023/08/03 01:02:26;;;;;;;0.40;0.40;;;25.00;63.90;;;25.56;48.38;93780.81;5075474;28;20235;-39
2023/08/03 01:04:54;;;;;;;0.40;0.40;;;25.00;63.90;;;25.55;48.04;93792.66;5075338;28;20320;-39
2023/08/03 01:07:23;;;;;;;0.40;0.40;;;24.90;63.90;;;25.55;48.27;93821.41;5077044;28;20244;-39
2023/08/03 01:09:51;;;;;;;0.40;0.40;;;24.90;63.90;;;25.54;48.35;93830.56;5076235;28;20252;-39
2023/08/03 01:12:19;;;;;;;0.40;0.40;;;24.90;63.90;;;25.54;48.42;93820.59;5076497;28;20277;-39
2023/08/03 01:14:47;;;;;;;0.30;0.30;;;25.00;64.00;;;25.52;48.07;93822.03;5076185;28;20551;-39
2023/08/03 01:17:14;;;;;;;0.40;0.40;;;24.90;64.10;;;25.50;48.32;93826.91;5075851;28;20206;-39
2023/08/03 01:19:41;;;;;;;0.30;0.30;;;24.90;64.10;;;25.49;48.54;93828.03;5076326;28;20264;-39
2023/08/03 01:22:13;;;;;;;0.50;0.50;;;24.90;64.10;;;25.48;48.59;93823.75;5041963;28;20504;-39
2023/08/03 01:24:41;;;;;;;0.60;0.60;;;24.90;64.20;;;25.47;48.39;93817.59;5058570;28;20201;-39
2023/08/03 01:27:08;;;;;;;0.60;0.60;;;24.90;64.10;;;25.44;48.18;93804.81;5075092;28;20224;-39
2023/08/03 01:29:35;;;;;;;0.60;0.60;;;24.90;64.20;;;25.45;48.43;93798.34;5075897;28;20185;-39
2023/08/03 01:32:02;;;;;;;0.35;0.35;;;24.90;64.30;;;25.45;48.49;93792.16;5076160;28;20601;-39
2023/08/03 01:34:30;;;;;;;0.40;0.40;;;24.90;64.30;;;25.44;48.52;93785.19;5074874;28;20234;-39
2023/08/03 01:36:57;;;;;;;0.32;0.32;;;24.90;64.40;;;25.45;48.86;93794.84;5041943;28;20638;-39
2023/08/03 01:39:26;;;;;;;0.40;0.40;;;24.90;64.30;;;25.45;48.55;93786.78;5075678;28;20220;-39
2023/08/03 01:41:53;;;;;;;0.60;0.60;;;24.90;64.40;;;25.42;48.91;93798.94;5074714;28;20208;-39
2023/08/03 01:44:28;;;;;;;0.40;0.40;;;24.80;64.30;;;25.42;48.92;93791.66;5058090;28;20210;-39
2023/08/03 01:46:58;;;;;;;0.40;0.40;;;24.90;64.70;;;25.39;48.95;93792.31;5058108;28;20248;-39
2023/08/03 01:49:30;;;;;;;0.30;0.30;;;24.90;64.50;;;25.38;49.00;93795.31;5074603;28;20209;-39
2023/08/03 01:51:57;;;;;;;0.30;0.30;;;24.80;64.60;;;25.38;48.91;93795.31;5074446;28;20516;-39
2023/08/03 01:54:25;;;;;;;0.50;0.50;;;24.80;64.50;;;25.38;48.95;93804.16;5075471;28;20555;-39
2023/08/03 01:56:53;;;;;;;0.32;0.32;;;24.80;65.40;;;25.37;49.16;93825.91;5057915;28;20291;-39
2023/08/03 01:59:21;;;;;;;0.38;0.38;;;24.80;64.60;;;25.35;49.15;93823.56;5074416;28;20632;-39
2023/08/03 02:01:48;;;;;;;0.30;0.30;;;24.80;64.70;;;25.34;49.23;93845.31;5074345;28;20196;-39
2023/08/03 02:04:16;;;;;;;0.30;0.30;;;24.80;64.60;;;25.33;49.29;93843.72;5075560;28;20215;-39
2023/08/03 02:06:55;;;;;;;0.40;0.40;;;24.80;64.70;;;25.31;49.12;93849.41;5074257;28;20212;-39
2023/08/03 02:09:23;;;;;;;0.50;0.50;;;24.70;65.70;;;25.31;49.33;93862.84;5074306;28;20541;-39
2023/08/03 02:11:50;;;;;;;0.60;0.60;;;24.80;64.70;;;25.30;49.49;93857.78;5074245;28;20235;-39
2023/08/03 02:14:18;;;;;;;0.40;0.40;;;24.80;64.80;;;25.31;49.15;93878.16;5057512;28;20261;-39
2023/08/03 02:16:45;;;;;;;0.50;0.50;;;24.70;64.80;;;25.29;49.40;93870.41;5057616;28;20204;-39
2023/08/03 02:19:12;;;;;;;0.40;0.40;;;24.70;65.70;;;25.28;49.00;93876.88;5073723;28;20665;-39
2023/08/03 02:21:39;;;;;;;0.38;0.38;;;24.80;64.90;;;25.28;49.40;93865.34;5075279;28;20201;-39
2023/08/03 02:24:07;;;;;;;0.30;0.30;;;24.80;64.90;;;25.26;49.53;93862.97;5074929;28;20204;-39
2023/08/03 02:26:34;;;;;;;0.30;0.30;;;24.70;64.80;;;25.25;49.47;93861.41;5074299;28;20217;-39
2023/08/03 02:29:01;;;;;;;0.32;0.32;;;24.70;64.70;;;25.24;49.37;93862.50;5074957;28;20225;-39
2023/08/03 02:31:28;;;;;;;0.40;0.40;;;24.70;64.80;;;25.23;49.33;93868.94;5075144;28;20204;-39
2023/08/03 02:33:55;;;;;;;0.30;0.30;;;24.70;64.70;;;25.22;49.29;93868.19;5073839;28;20201;-39
2023/08/03 02:36:31;;;;;;;0.50;0.50;;;24.70;64.60;;;25.21;49.35;93871.97;5058802;28;20508;-39
2023/08/03 02:39:03;;;;;;;0.50;0.50;;;24.70;64.70;;;25.20;49.31;93864.22;5042548;28;20209;-39
2023/08/03 02:41:33;;;;;;;0.30;0.30;;;24.70;64.70;;;25.20;49.37;93854.25;5057460;28;20224;-39
2023/08/03 02:44:02;;;;;;;0.63;0.63;;;24.70;64.70;;;25.20;49.55;93872.28;5073849;28;20546;-39
2023/08/03 02:46:32;;;;;;;0.40;0.40;;;24.70;64.70;;;25.18;49.17;93869.91;5074148;28;20305;-39
2023/08/03 02:49:00;;;;;;;0.30;0.30;;;24.70;64.70;;;25.18;49.11;93883.31;5073795;28;20204;-39
2023/08/03 02:51:30;;;;;;;0.30;0.30;;;24.70;64.70;;;25.18;49.20;93893.25;5073844;28;20209;-39
2023/08/03 02:53:57;;;;;;;0.40;0.40;;;24.60;64.60;;;25.16;49.57;93887.38;5073630;28;20204;-39
2023/08/03 02:56:28;;;;;;;0.30;0.30;;;24.60;64.60;;;25.16;49.21;93884.72;5073813;28;20208;-39
2023/08/03 02:58:56;;;;;;;0.40;0.40;;;24.70;64.80;;;25.16;49.31;93887.38;5074002;28;20208;-39
2023/08/03 03:01:33;;;;;;;0.35;0.35;;;24.60;64.70;;;25.15;49.48;93888.50;5073997;28;20193;-39
2023/08/03 03:04:01;;;;;;;0.38;0.38;;;24.60;64.70;;;25.15;49.56;93889.28;5074543;28;20281;-39
2023/08/03 03:06:29;;;;;;;0.30;0.30;;;24.60;64.70;;;25.14;49.65;93882.34;5057309;28;20356;-39
2023/08/03 03:08:56;;;;;;;0.32;0.32;;;24.60;64.80;;;25.14;49.56;93879.66;5073634;28;20274;-39
2023/08/03 03:11:23;;;;;;;0.60;0.60;;;24.60;65.80;;;25.14;49.32;93882.34;5074831;28;20197;-39
2023/08/03 03:13:50;;;;;;;0.40;0.40;;;24.60;64.80;;;25.13;49.49;93863.88;5074432;28;20183;-39
2023/08/03 03:16:25;;;;;;;0.50;0.50;;;24.60;64.90;;;25.13;49.61;93850.47;5073818;28;20225;-39
2023/08/03 03:18:54;;;;;;;0.40;0.40;;;24.60;64.90;;;25.10;49.82;93849.97;5073621;28;20228;-39
2023/08/03 03:21:22;;;;;;;0.40;0.40;;;24.60;64.90;;;25.12;49.82;93864.97;5073559;28;20220;-39
2023/08/03 03:23:50;;;;;;;0.52;0.52;;;24.60;64.90;;;25.10;49.45;93849.97;5073320;28;20212;-39
2023/08/03 03:26:19;;;;;;;0.30;0.30;;;24.60;64.90;;;25.11;49.56;93853.47;5057168;28;20243;-39
2023/08/03 03:28:46;;;;;;;0.40;0.40;;;24.60;65.00;;;25.10;49.56;93863.38;5074416;28;20284;-39
2023/08/03 03:31:17;;;;;;;0.30;0.30;;;24.60;65.00;;;25.10;49.79;93876.81;5074624;28;20331;-39
2023/08/03 03:33:44;;;;;;;0.30;0.30;;;24.60;65.00;;;25.09;49.71;93869.84;5078258;28;20204;-39
2023/08/03 03:36:14;;;;;;;0.57;0.57;;;24.60;65.00;;;25.10;49.63;93881.38;5061114;28;20217;-39
2023/08/03 03:38:42;;;;;;;0.32;0.32;;;24.60;65.00;;;25.08;49.95;93875.53;5077077;28;20205;-39
2023/08/03 03:41:09;;;;;;;0.40;0.40;;;24.60;65.00;;;25.09;49.76;93887.84;5077030;28;20291;-39
2023/08/03 03:43:40;;;;;;;0.30;0.30;;;24.50;65.00;;;25.09;49.82;93890.53;5077029;28;20547;-39
2023/08/03 03:46:07;;;;;;;0.30;0.30;;;24.60;65.10;;;25.08;49.91;93905.03;5076613;28;20241;-39
2023/08/03 03:48:36;;;;;;;0.40;0.40;;;24.50;65.00;;;25.06;49.99;93893.81;5060586;28;20209;-39
2023/08/03 03:51:04;;;;;;;0.50;0.50;;;24.60;65.10;;;25.05;49.87;93887.69;5076855;28;20228;-39
2023/08/03 03:53:32;;;;;;;0.30;0.30;;;24.50;64.90;;;25.04;49.46;93886.09;5060036;28;20292;-39
2023/08/03 03:56:06;;;;;;;0.40;0.40;;;24.50;64.80;;;25.03;49.72;93881.03;5076838;28;20218;-39
2023/08/03 03:58:33;;;;;;;0.50;0.50;;;24.60;64.90;;;25.02;49.65;93890.19;5077632;28;20203;-39
2023/08/03 04:01:00;;;;;;;0.40;0.40;;;24.60;64.90;;;25.02;49.71;93903.59;5077018;28;20228;-39
2023/08/03 04:03:28;;;;;;;0.30;0.30;;;24.50;64.80;;;25.00;49.84;93906.59;5077485;28;20552;-39
2023/08/03 04:06:00;;;;;;;0.50;0.50;;;24.50;64.80;;;25.00;49.68;93893.19;5076790;28;20197;-39
2023/08/03 04:08:29;;;;;;;0.40;0.40;;;24.50;64.80;;;24.98;49.57;93881.19;5077866;28;20636;-39
2023/08/03 04:10:56;;;;;;;0.55;0.55;;;24.50;64.80;;;25.00;49.72;93897.75;5077475;28;20185;-39
2023/08/03 04:13:23;;;;;;;0.32;0.32;;;24.50;64.80;;;24.99;49.39;93909.59;5077287;28;20579;-39
2023/08/03 04:15:50;;;;;;;0.50;0.50;;;24.50;64.80;;;24.98;49.41;93903.41;5077102;28;20189;-39
2023/08/03 04:18:17;;;;;;;0.30;0.30;;;24.40;64.70;;;24.98;49.56;93916.06;5077323;28;20273;-39
2023/08/03 04:20:45;;;;;;;0.30;0.30;;;24.40;64.70;;;24.98;49.55;93927.56;5059856;28;20312;-39
2023/08/03 04:23:12;;;;;;;0.40;0.40;;;24.40;64.70;;;24.98;49.59;93924.09;5076644;28;20200;-39
2023/08/03 04:25:40;;;;;;;0.40;0.40;;;24.50;64.70;;;24.98;49.78;93919.50;5077383;28;20286;-39
2023/08/03 04:28:15;;;;;;;0.32;0.32;;;24.40;64.60;;;24.96;49.62;93924.38;5076239;28;20195;-39
2023/08/03 04:30:42;;;;;;;0.40;0.40;;;24.40;64.70;;;24.96;49.37;93934.34;5077393;28;20214;-39
2023/08/03 04:33:10;;;;;;;0.30;0.30;;;24.50;64.80;;;24.95;49.62;93933.56;5059519;28;20270;-39
2023/08/03 04:35:40;;;;;;;0.32;0.32;;;24.40;64.70;;;24.94;49.38;93937.34;5076615;28;20199;-39
2023/08/03 04:38:27;;;;;;;0.32;0.32;;;24.50;64.80;;;24.93;49.58;93935.75;5076922;28;20214;-39
2023/08/03 04:41:00;;;;;;;0.50;0.50;;;24.40;64.60;;;24.92;49.71;93928.78;5076000;28;20615;-39
2023/08/03 04:43:29;;;;;;;0.40;0.40;;;24.40;64.70;;;24.92;49.45;93928.78;5076350;28;20176;-39
2023/08/03 04:45:56;;;;;;;0.50;0.50;;;24.40;64.70;;;24.91;49.51;93935.25;5076566;28;20240;-39
2023/08/03 04:48:23;;;;;;;0.35;0.35;;;24.40;64.70;;;24.89;49.39;93932.88;5075774;28;20579;-39
2023/08/03 04:50:51;;;;;;;0.40;0.40;;;24.40;64.70;;;24.90;49.59;93917.56;5075754;28;20656;-39
2023/08/03 04:53:20;;;;;;;0.50;0.50;;;24.40;64.70;;;24.86;49.24;93892.47;5075580;28;20254;-39
2023/08/03 04:55:48;;;;;;;0.40;0.40;;;24.40;64.80;;;24.87;49.48;93891.38;5075723;28;20593;-39
2023/08/03 04:58:15;;;;;;;0.40;0.40;;;24.40;64.80;;;24.88;49.61;93919.78;5076543;28;20200;-39
2023/08/03 05:00:46;;;;;;;0.30;0.30;;;24.40;64.80;;;24.87;49.52;93924.34;5075645;28;20212;-39
2023/08/03 05:03:14;;;;;;;0.40;0.40;;;24.40;64.90;;;24.86;49.51;93909.34;5076297;28;20227;-39
2023/08/03 05:05:42;;;;;;;0.30;0.30;;;24.40;65.00;;;24.87;49.70;93905.56;5075369;28;20254;-39
2023/08/03 05:08:13;;;;;;;0.30;0.30;;;24.40;64.90;;;24.87;49.82;93918.19;5075434;28;20203;-39
2023/08/03 05:10:41;;;;;;;0.40;0.40;;;24.40;64.90;;;24.86;49.71;93924.66;5058862;28;20636;-39
2023/08/03 05:13:08;;;;;;;0.35;0.35;;;24.30;64.80;;;24.85;49.50;93925.75;5076532;28;20280;-39
2023/08/03 05:15:35;;;;;;;0.38;0.38;;;24.30;65.70;;;24.84;49.46;93943.75;5075081;28;20212;-39
2023/08/03 05:18:02;;;;;;;0.30;0.30;;;24.30;64.80;;;24.84;49.42;93932.22;5075233;28;20363;-39
2023/08/03 05:20:29;;;;;;;0.60;0.60;;;24.30;64.80;;;24.83;49.67;93944.03;5076400;28;20253;-39
2023/08/03 05:22:56;;;;;;;0.30;0.30;;;24.30;64.80;;;24.82;49.53;93945.16;5074936;28;20624;-39
2023/08/03 05:25:23;;;;;;;0.40;0.40;;;24.30;65.70;;;24.82;49.66;93948.63;5076025;28;20647;-39
2023/08/03 05:27:50;;;;;;;0.50;0.50;;;24.30;64.80;;;24.81;49.66;93941.66;5075034;28;20292;-39
2023/08/03 05:30:17;;;;;;;0.47;0.47;;;24.30;64.80;;;24.80;49.48;93942.75;5076139;28;20199;-39
2023/08/03 05:32:46;;;;;;;0.40;0.40;;;24.30;64.90;;;24.80;49.59;93933.94;5075838;28;20191;-39
2023/08/03 05:35:14;;;;;;;0.40;0.40;;;24.30;64.90;;;24.81;49.46;93946.25;5075671;28;20187;-39
2023/08/03 05:37:41;;;;;;;0.40;0.40;;;24.30;64.80;;;24.80;49.79;93920.50;5074926;28;20192;-39
2023/08/03 05:40:09;;;;;;;0.50;0.50;;;24.30;64.90;;;24.80;49.79;93923.97;5075998;28;20226;-39
2023/08/03 05:42:38;;;;;;;0.40;0.40;;;24.30;64.90;;;24.80;49.56;93948.13;5075905;28;20521;-39
2023/08/03 05:45:37;;;;;;;0.40;0.40;;;24.30;64.80;;;24.77;49.65;93954.09;5075301;28;20752;-39
2023/08/03 05:48:12;;;;;;;0.30;0.30;;;24.30;64.90;;;24.77;49.42;93943.38;5075828;28;20231;-39
2023/08/03 05:50:42;;;;;;;0.40;0.40;;;24.30;64.80;;;24.77;49.71;93924.59;5058240;28;20252;-39
2023/08/03 05:53:10;;;;;;;0.40;0.40;;;24.30;64.90;;;24.76;49.81;93929.16;5075651;28;20195;-39
2023/08/03 05:55:39;;;;;;;0.55;0.55;;;24.30;64.90;;;24.76;50.05;93949.84;5073940;28;20250;-39
2023/08/03 05:58:11;;;;;;;0.40;0.40;;;24.30;64.90;;;24.76;49.57;93955.97;5075079;28;20717;-39
2023/08/03 06:00:41;;;;;;;0.30;0.30;;;24.30;65.00;;;24.75;49.55;93954.38;5075515;28;20223;-39
2023/08/03 06:03:17;;;;;;;0.40;0.40;;;24.30;64.90;;;24.74;49.85;93960.06;5075669;28;20278;-39
2023/08/03 06:05:47;;;;;;;0.40;0.40;;;24.30;64.80;;;24.74;49.78;93965.44;5075564;28;20199;-39
2023/08/03 06:08:21;;;;;;;0.30;0.30;;;24.30;64.80;;;24.71;49.42;93968.72;5075244;28;20196;-39
2023/08/03 06:10:54;;;;;;;0.63;0.63;;;24.20;64.80;;;24.70;49.63;93973.28;5075791;28;20505;-39
2023/08/03 06:13:31;;;;;;;0.30;0.30;;;24.20;64.80;;;24.70;49.71;93967.94;5074636;28;20271;-39
2023/08/03 06:16:00;;;;;;;0.50;0.50;;;24.20;64.80;;;24.69;49.49;93962.88;5075228;28;20218;-39
2023/08/03 06:18:32;;;;;;;0.60;0.60;;;24.20;64.80;;;24.69;49.66;93969.03;5075634;28;20254;-39
2023/08/03 06:20:59;;;;;;;0.40;0.40;;;24.20;64.80;;;24.68;49.64;93964.78;5075155;28;20179;-39
2023/08/03 06:23:27;;;;;;;0.40;0.40;;;24.20;64.80;;;24.67;49.83;93968.56;5075664;28;20561;-39
2023/08/03 06:25:55;;;;;;;0.60;0.60;;;24.20;65.60;;;24.67;49.87;93944.41;5074393;28;20692;-39
2023/08/03 06:28:23;;;;;;;0.70;0.70;;;24.20;64.90;;;24.66;49.50;93944.69;5074079;28;20187;-39
2023/08/03 06:30:52;;;;;;;0.40;0.40;;;24.20;64.80;;;24.68;49.77;93982.72;5075198;28;20191;-39
2023/08/03 06:33:24;;;;;;;0.45;0.45;;;24.20;64.80;;;24.65;49.33;93981.44;5074065;28;20204;-39
2023/08/03 06:35:55;;;;;;;0.43;0.43;;;24.20;64.80;;;24.64;49.54;93973.69;5074962;28;20274;-39
2023/08/03 06:38:23;;;;;;;0.40;0.40;;;24.20;64.80;;;24.64;49.55;93971.78;5074919;28;20299;-39
2023/08/03 06:40:51;;;;;;;0.40;0.40;;;24.20;64.70;;;24.64;49.40;93958.38;5075173;28;20200;-39
2023/08/03 06:43:18;;;;;;;0.30;0.30;;;24.20;64.80;;;24.64;49.63;93968.34;5074542;28;20278;-39
2023/08/03 06:45:45;;;;;;;0.30;0.30;;;24.10;64.70;;;24.62;49.54;93976.69;5074684;28;20226;-39
2023/08/03 06:48:14;;;;;;;0.47;0.47;;;24.20;64.90;;;24.62;49.57;93988.19;5074590;28;20657;-39
2023/08/03 06:50:42;;;;;;;0.40;0.40;;;24.10;64.80;;;24.60;49.75;93985.00;5074236;28;20188;-39
2023/08/03 06:53:10;;;;;;;0.40;0.40;;;24.10;64.80;;;24.61;49.47;93996.53;5074793;28;20281;-39
2023/08/03 06:55:37;;;;;;;0.60;0.60;;;24.10;64.80;;;24.61;49.63;93993.88;5074589;28;20214;-39
2023/08/03 06:58:04;;;;;;;0.30;0.30;;;24.10;64.80;;;24.60;49.75;94000.31;5074766;28;20359;-39
2023/08/03 07:00:32;;;;;;;0.30;0.30;;;24.10;64.70;;;24.60;49.68;94006.47;5074717;28;20639;-39
2023/08/03 07:02:59;;;;;;;0.38;0.38;;;24.10;64.70;;;24.59;49.81;94004.88;5074685;28;20291;-39
2023/08/03 07:05:26;;;;;;;0.40;0.40;;;24.10;64.80;;;24.59;49.36;94018.28;5075396;28;20200;-39
2023/08/03 07:07:54;;;;;;;0.40;0.40;;;24.10;64.80;;;24.60;49.48;94021.78;5078600;28;20269;-39
2023/08/03 07:10:21;;;;;;;0.35;0.35;;;24.10;64.80;;;24.59;49.49;94022.84;5078611;28;20206;-39
2023/08/03 07:12:48;;;;;;;0.40;0.40;;;24.10;64.70;;;24.57;49.54;94017.81;5078416;28;20183;-36
2023/08/03 07:15:15;;;;;;;0.30;0.30;;;24.10;64.70;;;24.57;49.69;94020.50;5078085;28;20196;-37
2023/08/03 07:17:42;;;;;;;0.57;0.57;;;24.10;64.80;;;24.56;49.64;94024.25;5078839;28;20269;-36
2023/08/03 07:20:11;;;;;;;0.35;0.35;;;24.10;64.90;;;24.56;49.90;94026.94;5078915;28;20524;-37
2023/08/03 07:22:38;;;;;;;0.30;0.30;;;24.10;64.80;;;24.55;49.68;94044.13;5078693;28;20260;-39
2023/08/03 07:25:06;;;;;;;0.40;0.40;;;24.10;64.80;;;24.56;49.66;94037.66;5077503;28;20541;-36
2023/08/03 07:27:33;;;;;;;0.50;0.50;;;24.10;64.80;;;24.57;49.69;94038.44;5078035;28;20208;-37
2023/08/03 07:30:00;;;;;;;0.50;0.50;;;24.10;64.80;;;24.55;49.52;94019.22;5078465;28;20225;-37
2023/08/03 07:32:27;;;;;;;0.60;0.60;;;24.10;64.90;;;24.55;49.78;94011.94;5078177;28;20222;-37
2023/08/03 07:34:54;;;;;;;0.40;0.40;;;24.10;64.90;;;24.56;49.60;94010.03;5078052;28;20192;-37
2023/08/03 07:37:21;;;;;;;0.40;0.40;;;24.10;64.90;;;24.55;49.71;94008.47;5078094;28;20247;-37
2023/08/03 07:39:48;;;;;;;0.40;0.40;;;24.10;64.90;;;24.54;49.63;94018.41;5078312;28;20216;-37
2023/08/03 07:42:16;;;;;;;0.40;0.40;;;24.10;65.00;;;24.52;49.83;94025.16;5078521;28;20199;-37
2023/08/03 07:44:43;;;;;;;0.40;0.40;;;24.00;65.00;;;24.55;49.87;94027.25;5077825;28;20678;-37
2023/08/03 07:47:12;;;;;;;0.40;0.40;;;24.10;65.00;;;24.55;49.87;94033.41;5078216;28;20295;-37
2023/08/03 07:49:40;;;;;;;0.30;0.30;;;24.00;65.00;;;24.56;49.92;94039.53;5078244;28;20218;-36
2023/08/03 07:52:07;;;;;;;0.45;0.45;;;24.10;65.10;;;24.56;49.86;94040.34;5078604;28;20196;-36
2023/08/03 07:54:36;;;;;;;0.40;0.40;;;24.10;65.10;;;24.56;49.96;94037.66;5078138;28;20204;-36
2023/08/03 07:57:04;;;;;;;0.40;0.40;;;24.10;65.10;;;24.57;49.91;94049.16;5078254;28;20196;-36
2023/08/03 07:59:32;;;;;;;0.40;0.40;;;24.00;65.10;;;24.57;50.04;94063.38;5078051;28;20204;-36
2023/08/03 08:02:00;;;;;;;0.50;0.50;;;24.10;65.20;;;24.57;49.88;94054.53;5078145;28;20255;-36
2023/08/03 08:04:28;;;;;;;0.40;0.40;;;24.00;65.10;;;24.57;49.95;94062.56;5077516;28;20192;-36
2023/08/03 08:06:55;;;;;;;0.30;0.30;;;24.10;65.10;;;24.57;50.03;94062.56;5078061;28;20219;-36
2023/08/03 08:09:22;;;;;;;0.30;0.30;;;24.10;65.10;;;24.56;50.13;94056.44;5077140;28;20187;-36
2023/08/03 08:11:50;;;;;;;0.30;0.30;;;24.10;65.20;;;24.57;50.37;94054.53;5077680;28;20224;-36
2023/08/03 08:14:18;;;;;;;0.40;0.40;;;24.10;65.10;;;24.56;49.95;94060.97;5077975;28;20197;-36
2023/08/03 08:16:44;;;;;;;0.35;0.35;;;24.10;65.20;;;24.56;50.27;94069.84;5076119;28;20199;-36
2023/08/03 08:19:19;;;;;;;0.30;0.30;;;24.10;65.10;;;24.56;50.25;94048.38;5078144;28;20183;-36
2023/08/03 08:21:46;;;;;;;0.60;0.60;;;24.10;65.20;;;24.57;49.84;94060.69;5078094;28;20204;-36
2023/08/03 08:24:19;;;;;;;0.40;0.40;;;24.10;65.10;;;24.57;49.98;94060.69;5077822;28;20203;-36
2023/08/03 08:26:46;;;;;;;0.30;0.30;;;24.10;65.10;;;24.57;50.36;94067.94;5076308;28;20196;-36
2023/08/03 08:29:13;;;;;;;0.30;0.30;;;24.10;65.10;;;24.57;50.15;94070.63;5076248;28;20211;-36
2023/08/03 08:31:40;;;;;;;0.30;0.30;;;24.10;65.10;;;24.58;50.06;94074.88;5077871;28;20691;-36
2023/08/03 08:34:20;;;;;;;0.35;0.35;;;24.10;65.10;;;24.57;49.97;94068.75;5077099;28;20519;-36
2023/08/03 08:36:51;;;;;;;0.35;0.35;;;24.10;65.10;;;24.58;50.23;94069.53;5077580;28;20211;-36
2023/08/03 08:39:18;;;;;;;0.55;0.55;;;24.10;65.10;;;24.57;49.94;94063.38;5077240;28;20662;-36
2023/08/03 08:41:45;;;;;;;0.40;0.40;;;24.10;65.10;;;24.59;50.21;94060.41;5076148;28;20207;-36
2023/08/03 08:44:16;;;;;;;0.30;0.30;;;24.10;65.20;;;24.57;50.22;94052.66;5076944;28;20674;-36
2023/08/03 08:46:44;;;;;;;0.30;0.30;;;24.10;65.10;;;24.59;50.25;94063.06;5076776;28;20252;-36
2023/08/03 08:49:12;;;;;;;0.50;0.50;;;24.10;66.00;;;24.59;50.21;94071.13;5076952;28;20184;-36
2023/08/03 08:51:45;;;;;;;0.60;0.60;;;24.20;65.20;;;24.59;50.24;94079.94;5077208;28;20180;-36
2023/08/03 08:54:17;;;;;;;0.40;0.40;;;24.20;65.10;;;24.59;49.93;94073.81;5076900;28;20180;-36
2023/08/03 08:56:45;;;;;;;0.60;0.60;;;24.20;65.10;;;24.59;50.15;94076.47;5075790;28;20200;-36
2023/08/03 08:59:15;;;;;;;0.35;0.35;;;24.10;65.10;;;24.58;50.35;94075.69;5077408;28;20685;-36
2023/08/03 09:01:50;;;;;;;0.32;0.32;;;24.20;65.20;;;24.57;50.37;94066.06;5077145;28;20287;-36
2023/08/03 09:04:34;;;;;;;0.55;0.55;;;24.10;65.10;;;24.56;50.32;94060.97;5076561;28;20200;-36
2023/08/03 09:07:03;;;;;;;0.40;0.40;;;24.10;65.10;;;24.56;50.24;94069.84;5076556;28;20196;-36
2023/08/03 09:09:36;;;;;;;0.55;0.55;;;24.10;65.10;;;24.55;50.36;94065.56;5076896;28;20308;-36
2023/08/03 09:12:04;;;;;;;0.35;0.35;;;24.10;65.10;;;24.56;49.88;94083.25;5076451;28;20230;-36
2023/08/03 09:14:50;;;;;;;0.40;0.40;;;24.10;65.10;;;24.55;50.33;94088.91;5076753;28;20179;-36
2023/08/03 09:17:25;;;;;;;0.45;0.45;;;24.10;65.10;;;24.55;50.24;94095.06;5076675;28;20191;-36
2023/08/03 09:19:54;;;;;;;0.40;0.40;;;24.10;65.10;;;24.56;49.92;94087.78;5075599;28;20559;-36
2023/08/03 09:22:25;;;;;;;0.60;0.60;;;24.10;66.00;;;24.56;50.34;94085.09;5076312;28;20599;-36
2023/08/03 09:25:00;;;;;;;0.40;0.40;;;24.10;65.10;;;24.56;50.21;94104.69;5075452;28;20177;-36
2023/08/03 09:27:28;;;;;;;0.30;0.30;;;24.10;65.20;;;24.55;50.15;94105.00;5075580;28;20211;-36
2023/08/03 09:30:05;;;;;;;0.30;0.30;;;24.10;65.20;;;24.55;50.16;94113.81;5074211;28;20244;-36
2023/08/03 09:32:36;;;;;;;0.30;0.30;;;24.10;65.20;;;24.56;50.25;94109.25;5076295;28;20248;-36
2023/08/03 09:35:23;;;;;;;0.60;0.60;;;24.10;65.10;;;24.54;50.27;94103.41;5075918;28;20205;-36
2023/08/03 09:37:53;;;;;;;0.40;0.40;;;24.10;65.20;;;24.56;50.03;94098.50;5075197;28;20241;-36
2023/08/03 09:40:20;;;;;;;0.40;0.40;;;24.10;65.20;;;24.55;50.20;94097.72;5076196;28;20194;-36
2023/08/03 09:42:48;;;;;;;0.30;0.30;;;24.10;65.20;;;24.55;50.00;94099.63;5075935;28;20503;-36
2023/08/03 09:45:17;;;;;;;0.40;0.40;;;24.10;65.10;;;24.54;50.29;94092.69;5076017;28;20268;-36
2023/08/03 09:47:50;;;;;;;0.30;0.30;;;24.10;65.20;;;24.55;50.31;94094.28;5074849;28;20286;-36
2023/08/03 09:50:18;;;;;;;0.30;0.30;;;24.10;65.20;;;24.55;50.27;94087.00;5076054;28;20171;-36
2023/08/03 09:52:47;;;;;;;0.40;0.40;;;24.10;65.20;;;24.54;50.24;94080.06;5075734;28;20191;-36
2023/08/03 09:55:32;;;;;;;0.40;0.40;;;24.10;65.20;;;24.55;50.29;94080.88;5076219;28;20198;-36
2023/08/03 09:58:06;;;;;;;0.40;0.40;;;24.10;65.20;;;24.55;50.27;94084.34;5074678;28;20291;-36
2023/08/03 10:00:35;;;;;;;0.40;0.40;;;24.10;65.20;;;24.55;50.16;94091.59;5075825;28;20217;-36
2023/08/03 10:03:10;;;;;;;0.32;0.32;;;24.10;65.30;;;24.56;50.26;94101.19;5074985;28;20188;-36
2023/08/03 10:05:56;;;;;;;0.40;0.40;;;24.00;65.30;;;24.54;50.46;94096.13;5075564;28;20184;-36
2023/08/03 10:08:47;;;;;;;0.35;0.35;;;24.00;65.20;;;24.52;50.30;94101.00;5075538;28;20236;-36
2023/08/03 10:11:14;;;;;;;0.30;0.30;;;24.10;65.30;;;24.54;50.33;94098.03;5074518;28;20206;-36
2023/08/03 10:13:46;;;;;;;0.40;0.40;;;24.10;65.20;;;24.53;50.08;94091.88;5075382;28;20190;-36
2023/08/03 10:16:15;;;;;;;0.32;0.32;;;24.10;65.20;;;24.54;50.24;94095.38;5074842;28;20177;-36
2023/08/03 10:18:45;;;;;;;0.30;0.30;;;24.10;65.30;;;24.55;50.36;94105.00;5074499;28;20199;-36
2023/08/03 10:21:26;;;;;;;0.38;0.38;;;24.10;65.30;;;24.54;50.27;94096.13;5074576;28;20254;-36
2023/08/03 10:24:13;;;;;;;0.40;0.40;;;24.00;65.30;;;24.53;50.51;94097.22;5041320;28;20281;-36
2023/08/03 10:26:51;;;;;;;0.52;0.52;;;24.10;65.30;;;24.54;50.47;94106.09;5075610;28;20263;-36
2023/08/03 10:29:50;;;;;;;0.52;0.52;;;24.10;65.40;;;24.52;50.49;94094.84;5074132;28;20254;-36